Aeroporto :
LOGIN :

Iscrizione | Disclaimer

   EN    FR    IT 

 










Sommario :    VFR   VFR Marginale   IFR   IFR Intensivo   IFR Molto Intensivo
Visibilità : 
Base nubi : 
>= 8 km
>= 3000ft
5 / 8 km
1000 / 3000 ft
1500m / 5 km
500 / 1000 ft
800 / 1500m
200 / 500 ft
< 800m
< 200 ft
Simboli :   Temporali  Nebbia  Neve Forte  Precipitazioni Forti  Vento > 20 kt
SIGMETs :   Varie  Temporali  Ghiacco  Turbolenza  Onda orograficha  Ceneri Vulcaniche






- Altitudine del aeroporto : 38 ft
- Codice IATA : BOH


EGHH - Bournemouth

ULTIMO METAR :
  • 171750Z 24006KT CAVOK 05/02 Q1018

METARs OBSOLETI :
  • 171720Z 20004KT 9999 FEW048 04/02 Q1017
  • 171650Z 25003KT 9999 FEW048CB 04/03 Q1017
  • 171620Z 29007KT 9999 VCSH FEW008 SCT025CB 05/03 Q1017 RERA
  • 171550Z 27008KT 9999 SCT020CB 07/03 Q1017
  • 171520Z 26010KT 9999 FEW020 SCT025CB 08/03 Q1016
  • 171450Z 27013KT 9999 VCSH FEW020 FEW025TCU SCT027CB 08/02 Q1016

TAF TAF EGHH
Valido dal 17 a 18 ore il 18 a 03 ore UTC


171707Z 1718/1803 27007KT 9999 FEW010 SCT025
TEMPO 1718/1724 6000 SHRA
ATIS : +44 1202 364 151
Met : +44 1202 364 158 (TAF)



MetMap, La meteo Aeronautica in un colpo d'occhio ! - Copyright ORBIFLY Dicembre 2007 - Disclaimer

ORBIFLY MET'MAP TEAM :

Programmazione e sviluppo : Alexandra Zaïnal
Concezione : Baudouin d'Aumeries
Aiuto per la programmazione : Marc-Olivier Méhu
Supporto tecnico e logistico : Manuel Goepfert
Aiuto per la traduzione : Arnaldo La Scala

Contatto : metmap@orbifly.com




FONTI E CREDITI :

   NOAA